EGGDEYKA

Guest
Details From EGGD - Bristol International
To EYKA - Kaunas Intl
Flight Number -
Tags decoded
Created
Modified
Stats Distance 991 nm / 1,835 km
Max Altitude 0 ft / 0 m
Waypoints 4
Social Downloads 0
Likes 0
Share VATSIM

Download

Looking for another format? Having issues loading an existing format? Contact us
Advertisement - Login to hide

Notes

Requested: EGGD WOTAN CPT EYKA

Route

EGGD WOTAN CPT EYKA

ID Type Via Altitude Latitude Longitude Leg Dist Tot Dist Heading (true) Name
O EGGD APT - 0 ft / 0 m 51.38266˚ -2.71892˚ - 0 nm - Bristol International
WOTAN FIX - 0 ft / 0 m 51.62389˚ -2.33500˚ 20 nm 20 nm 45° / 45° -
CPT VOR - 0 ft / 0 m 51.49167˚ -1.21972˚ 42 nm 62 nm 100° / 101° COMPTON VOR-DME
O EYKA APT - 0 ft / 0 m 54.96388˚ 24.08400˚ 927 nm 990 nm 67° / 87° Kaunas Intl

Altitude Profile

Advertisement - Login to hide

Weather


0- 5 10 15 20 25 30 35+ Temperature / ° C

Clouds and Precipitation
Forecast for 2018-05-22 00:00 UTC. Updated 6 hours ago

Ground ~20,000 ft ~40,000 ft Winds

EGGD

Details ICAO EGGD (BRS)
Name Bristol International
Region United Kingdom
Timezone Europe/London (UTC+1.0)
Stats Elevation 622 ft / 190 m (AMSL)
Location 51.382658° -2.718918°
Runways 1
Magnetic Variation 1.285° W

METAR

EGGD 220450Z AUTO 03013KT 9999 NCD 11/10 Q1016

Decode

TAF

TAF EGGD 212300Z 2200/2224 03008KT 9999 FEW040 PROB30 TEMPO 2204/2209 8000 BKN005 PROB30 TEMPO 2214/2219 5000 +SHRA

Decode

Departure Runways

ID Width Length Bearing (true) Bearing (mag) Surface Threshold Offset Overrun Length
09 148 ft / 45 m 6,655 ft / 2,029 m 86.42° 87.70° Asphalt 0 ft / 0 m 0 ft / 0 m
27 148 ft / 45 m 6,655 ft / 2,029 m 266.44° 267.72° Asphalt 499 ft / 152 m 0 ft / 0 m

EYKA

Details ICAO EYKA (KUN)
Name Kaunas Intl
Region Lithuania
Timezone Europe/Vilnius (UTC+3.0)
Stats Elevation 256 ft / 78 m (AMSL)
Location 54.963881° 24.084001°
Runways 1
Magnetic Variation 7.268° E

METAR

EYKA 220450Z VRB01KT 9999 -RA SCT049 OVC062 12/11 Q1022

Decode

TAF

TAF EYKA 212301Z 2200/2224 VRB05KT 9000 BKN045 TEMPO 2202/2207 BKN040CB TEMPO 2213/2217 BKN035CB

Decode

Destination Runways

ID Width Length Bearing (true) Bearing (mag) Surface Threshold Offset Overrun Length
08 148 ft / 45 m 10,309 ft / 3,142 m 85.05° 77.78° Asphalt 1,116 ft / 340 m 240 ft / 73 m
26 148 ft / 45 m 10,309 ft / 3,142 m 265.09° 257.82° Asphalt 789 ft / 240 m 240 ft / 73 m

Approach Navaids

Runway Type Ident Frequency Range Bearing (true) Bearing (mag) Slope Elevation
08 Localiser IKM 109.50 MHz 18 nm / 33 km 85.09° 77.83° - 256 ft / 78 m (AMSL)
08 Glidescope IKM 109.50 MHz 10 nm / 19 km 85.07° 77.80° 3.00° 256 ft / 78 m (AMSL)
26 Localiser ISE 109.90 MHz 18 nm / 33 km 265.04° 257.78° - 256 ft / 78 m (AMSL)
26 Glidescope ISE 109.90 MHz 10 nm / 19 km 265.07° 257.80° 3.00° 256 ft / 78 m (AMSL)

Popular Alternatives